Paynes Find, Australia
Current Conditions -  °F | °C
As of 12:00 PM on Monday 26 Jan 2015 (Local Time) from YGEL Reporting Station
Clear Clear  
Wind Chill: 104°   Ceiling: Unl
Heat Index: 104°   Visibility: 6mi
Dew Point: 50°   Wind: 14mph
Humidity: 16%   Direction: 190°S
Pressure: 29.65"   Gusts: NA
Location:  29.26°S, 117.69°E
Report Text: YGEL 260400Z 19012KT CAVOK 40/10 Q1004
Loading
Personal Weather Stations






























Interactive Weather Map New forecast layout! Learn more

10-Day Weather Forecast

Advertisements
Track Severe Weather on mobile